Latest Weather Observations for Low Rocky Point

IDT60801

Issued at 8:31 pm EST Monday 27 April 2015 (issued every 30 minutes, with the page automatically refreshed every 10 minutes)

About weather observations | Map of weather stations | Latest weather observations for TAS | Other Formats
Station Details ID: 097080 Name: LOW ROCKY POINT Lat: -42.98 Lon: 145.50 Height: 34.0 m
Data from the previous 72 hours. | See also: Recent months at Low Rocky Point
Date/Time
EST
Temp
°C
App
Temp
°C
Dew
Point
Rel
Hum
%
Delta-T
°C
Wind Press
QNH
hPa
Press
MSL
hPa
Rain
since 9 am
mm
Dir
 
Spd
km/h
Gust
km/h
Spd
kts
Gust
kts
27/08:30pm 10.0 6.9 8.9 93 0.5 W 15 20 8 11 1024.6 1024.6 2.4
27/08:00pm 9.2 7.1 8.1 93 0.5 SW 9 17 5 9 1024.5 1024.5 2.4
27/07:30pm 9.2 7.1 8.1 93 0.5 NE 9 13 5 7 1024.3 1024.3 2.4
27/07:00pm 9.4 7.8 8.2 92 0.6 NE 6 9 3 5 1023.7 1023.7 2.4
27/06:30pm 9.7 6.4 8.1 90 0.8 S 15 20 8 11 1023.6 1023.6 2.0
27/06:00pm 9.9 7.8 8.2 89 0.8 SSW 9 15 5 8 1023.3 1023.3 1.2
27/05:30pm 10.0 6.8 8.4 90 0.8 SSW 15 20 8 11 1022.9 1022.9 1.2
27/05:00pm 10.0 8.5 8.3 89 0.8 SSW 6 11 3 6 1022.6 1022.6 1.2
27/04:30pm 10.5 6.4 8.6 88 0.9 SW 20 30 11 16 1022.5 1022.5 1.2
27/04:00pm 10.7 6.7 9.0 89 0.8 SSW 20 28 11 15 1022.2 1022.2 1.2
27/03:30pm 10.7 8.1 9.3 91 0.7 SSW 13 20 7 11 1022.1 1022.1 1.2
27/03:00pm 10.7 6.7 9.1 90 0.8 SSW 20 28 11 15 1022.0 1022.0 1.2
27/02:30pm 11.8 8.7 10.4 91 0.7 S 17 20 9 11 1021.6 1021.6 1.2
27/02:00pm 11.8 8.7 10.4 91 0.7 SW 17 24 9 13 1021.3 1021.3 1.2
27/01:30pm 10.9 8.3 9.3 90 0.8 S 13 17 7 9 1021.2 1021.2 1.2
27/01:00pm 10.6 7.9 8.9 89 0.8 SW 13 20 7 11 1021.2 1021.2 1.0
27/12:30pm 11.8 9.3 9.7 87 1.1 S 13 19 7 10 1021.4 1021.4 1.0
27/12:00pm 10.9 8.0 8.3 84 1.3 SSW 13 20 7 11 1021.6 1021.6 0.2
27/11:30am 10.9 7.2 8.0 82 1.4 SW 17 24 9 13 1021.6 1021.6 0.2
27/11:00am 10.3 8.3 7.0 80 1.6 WSW 7 17 4 9 1021.5 1021.5 0.2
27/10:30am 11.0 7.0 6.7 75 2.0 SW 17 24 9 13 1021.2 1021.2 0.0
27/10:00am 11.1 6.3 7.4 78 1.8 SW 22 30 12 16 1020.7 1020.7 0.0
27/09:30am 10.8 6.3 7.1 78 1.8 SW 20 30 11 16 1020.5 1020.5 0.0
27/09:00am 10.7 5.6 7.6 81 1.5 WSW 24 32 13 17 1020.1 1020.1 3.2
27/08:30am 10.5 6.7 7.6 82 1.4 WSW 17 24 9 13 1019.8 1019.8 3.2
27/08:00am 10.2 5.8 7.3 82 1.4 WSW 20 30 11 16 1019.7 1019.7 3.2
27/07:30am 10.2 5.7 7.1 81 1.5 WSW 20 33 11 18 1019.3 1019.3 3.2
27/07:00am 10.4 5.9 7.1 80 1.6 SSW 20 32 11 17 1018.7 1018.7 3.2
27/06:30am 10.3 5.3 8.1 86 1.1 WSW 24 35 13 19 1018.5 1018.5 3.2
27/06:00am 10.1 6.4 8.0 87 1.0 WSW 17 26 9 14 1018.4 1018.4 3.2
27/05:30am 9.7 4.3 7.8 88 0.9 SW 26 37 14 20 1018.3 1018.3 3.2
27/05:00am 10.2 4.2 8.6 90 0.8 W 30 41 16 22 1017.9 1017.9 3.2
27/04:30am 9.3 4.9 7.6 89 0.8 SW 20 28 11 15 1017.6 1017.6 3.2
27/04:00am 9.6 5.8 7.5 87 1.0 SW 17 28 9 15 1017.5 1017.5 3.2
27/03:30am 9.7 5.3 7.3 85 1.1 SSW 20 26 11 14 1017.5 1017.5 3.0
27/03:00am 10.3 5.5 7.4 82 1.4 WSW 22 35 12 19 1017.4 1017.4 3.0
27/02:30am 10.0 4.7 6.9 81 1.5 SW 24 33 13 18 1017.5 1017.5 3.0
27/02:00am 10.4 5.7 7.6 83 1.3 WSW 22 35 12 19 1017.4 1017.4 3.0
27/01:30am 10.1 5.0 7.7 85 1.2 SW 24 39 13 21 1017.5 1017.5 3.0
27/01:00am 9.7 3.8 7.3 85 1.1 W 28 41 15 22 1017.6 1017.6 3.0
27/12:48am 9.6 3.9 6.9 83 1.3 WSW 26 39 14 21 1017.5 1017.5 3.0
27/12:30am 9.3 5.6 6.2 81 1.4 SW 15 20 8 11 1017.4 1017.4 3.0
27/12:00am 9.7 4.0 6.6 81 1.4 SW 26 41 14 22 1017.3 1017.3 3.0
 
Date/Time
EST
Temp
°C
App
Temp
°C
Dew
Point
Rel
Hum
%
Delta-T
°C
Wind Press
QNH
hPa
Press
MSL
hPa
Rain
since 9 am
mm
Dir
 
Spd
km/h
Gust
km/h
Spd
kts
Gust
kts
26/11:30pm 10.2 4.0 6.0 75 1.9 SW 28 37 15 20 1017.5 1017.5 3.0
26/11:00pm 10.6 5.4 5.6 71 2.3 SW 22 32 12 17 1017.1 1017.1 3.0
26/10:30pm 10.4 4.1 5.6 72 2.2 SW 28 37 15 20 1017.2 1017.2 3.0
26/10:00pm 10.6 4.4 6.2 74 2.0 SW 28 35 15 19 1017.1 1017.1 3.0
26/09:30pm 10.7 5.1 7.2 79 1.7 SW 26 35 14 19 1017.0 1017.0 3.0
26/09:00pm 9.6 5.0 6.5 81 1.4 SSW 20 32 11 17 1017.0 1017.0 3.0
26/08:30pm 10.4 4.5 7.3 81 1.5 WSW 28 39 15 21 1016.7 1016.7 3.0
26/08:00pm 10.2 4.7 7.4 83 1.3 SW 26 37 14 20 1016.4 1016.3 3.0
26/07:30pm 10.0 5.8 7.3 83 1.3 SSW 19 33 10 18 1016.3 1016.3 3.0
26/07:00pm 10.4 3.7 7.3 81 1.5 SW 32 41 17 22 1016.1 1016.0 3.0
26/06:30pm 10.6 4.4 7.7 82 1.4 SW 30 41 16 22 1015.6 1015.6 3.0
26/06:00pm 10.4 4.5 7.6 83 1.3 SW 28 37 15 20 1015.0 1015.0 3.0
26/05:30pm 10.6 4.5 8.2 85 1.2 SW 30 41 16 22 1014.8 1014.9 3.0
26/05:19pm 10.5 4.7 8.1 85 1.2 SW 28 46 15 25 1014.6 1014.7 3.0
26/05:00pm 10.4 4.6 8.0 85 1.2 SW 28 43 15 23 1014.5 1014.5 3.0
26/04:30pm 11.2 5.6 8.9 86 1.1 SW 28 39 15 21 1014.1 1014.2 3.0
26/04:00pm 11.1 5.6 9.2 88 0.9 SW 28 41 15 22 1013.9 1013.9 3.0
26/03:30pm 10.9 5.8 9.3 90 0.8 SW 26 35 14 19 1013.6 1013.6 3.0
26/03:00pm 10.9 5.9 9.5 91 0.7 WSW 26 37 14 20 1013.5 1013.5 2.8
26/02:30pm 11.1 5.0 9.7 91 0.7 WSW 32 46 17 25 1013.3 1013.3 2.8
26/02:00pm 10.3 4.0 9.1 92 0.6 W 32 41 17 22 1013.3 1013.3 2.8
26/01:30pm 10.8 3.6 9.2 90 0.8 W 37 48 20 26 1013.0 1013.0 1.8
26/01:00pm 11.0 4.5 8.9 87 1.0 WNW 33 41 18 22 1013.1 1013.1 1.4
26/12:30pm 11.2 4.0 9.3 88 1.0 WNW 37 46 20 25 1013.0 1013.0 1.4
26/12:00pm 11.7 5.8 9.1 84 1.3 WNW 30 50 16 27 1013.3 1013.3 0.8
26/11:00am 11.2 5.1 9.6 90 0.8 WNW 32 39 17 21 1013.8 1013.8 0.8
26/10:30am 10.6 5.0 8.7 88 0.9 NW 28 37 15 20 1014.0 1014.1 0.6
26/10:00am 10.1 3.9 7.9 86 1.1 NW 30 37 16 20 1014.1 1014.1 0.6
26/09:30am 9.5 3.4 6.8 83 1.3 NW 28 37 15 20 1014.3 1014.4 0.6
26/09:00am 9.3 2.7 6.0 80 1.5 WNW 30 39 16 21 1014.6 1014.6 0.8
26/08:30am 10.5 5.1 6.3 75 2.0 W 24 33 13 18 1014.4 1014.5 0.0
26/08:00am 10.2 4.7 5.8 74 2.0 WNW 24 33 13 18 1014.5 1014.5 0.0
26/07:30am 9.8 5.6 5.6 75 1.9 W 17 20 9 11 1014.3 1014.4 0.0
26/07:00am 9.3 4.5 5.5 77 1.7 WNW 20 28 11 15 1014.2 1014.2 0.0
26/06:30am 9.2 4.0 5.4 77 1.7 WNW 22 28 12 15 1014.2 1014.3 0.0
26/06:00am 9.7 4.7 4.7 71 2.2 W 20 28 11 15 1014.2 1014.2 0.0
26/05:30am 9.6 5.1 4.0 68 2.5 WSW 17 26 9 14 1014.2 1014.3 0.0
26/05:00am 9.9 3.7 4.3 68 2.5 W 26 37 14 20 1014.1 1014.1 0.0
26/04:30am 9.9 3.4 4.5 69 2.4 W 28 35 15 19 1014.0 1014.1 0.0
26/04:00am 10.2 4.1 4.6 68 2.5 W 26 35 14 19 1013.8 1013.8 0.0
26/03:30am 10.3 5.1 5.3 71 2.3 W 22 28 12 15 1013.9 1014.0 0.0
26/03:00am 10.3 5.1 5.7 73 2.1 WSW 22 28 12 15 1013.9 1013.9 0.0
26/02:30am 10.1 5.4 6.1 76 1.9 WSW 20 28 11 15 1014.0 1014.1 0.0
26/02:00am 9.4 5.2 5.8 78 1.6 W 17 20 9 11 1014.3 1014.3 0.0
26/01:30am 9.9 6.9 5.9 76 1.8 W 11 17 6 9 1014.2 1014.3 0.0
26/01:00am 9.4 5.9 5.6 77 1.7 SW 13 19 7 10 1014.2 1014.2 0.0
26/12:30am 9.2 5.7 5.6 78 1.6 SSW 13 20 7 11 1014.3 1014.4 0.0
26/12:00am 9.2 5.7 5.6 78 1.6 S 13 19 7 10 1014.3 1014.3 0.0
 
Date/Time
EST
Temp
°C
App
Temp
°C
Dew
Point
Rel
Hum
%
Delta-T
°C
Wind Press
QNH
hPa
Press
MSL
hPa
Rain
since 9 am
mm
Dir
 
Spd
km/h
Gust
km/h
Spd
kts
Gust
kts
25/11:30pm 8.6 5.8 5.0 78 1.6 S 9 13 5 7 1014.3 1014.4 0.0
25/11:00pm 8.7 4.7 5.1 78 1.6 SSE 15 20 8 11 1014.4 1014.4 0.0
25/10:30pm 8.5 3.8 5.1 79 1.5 SSE 19 26 10 14 1014.6 1014.7 0.0
25/10:00pm 8.8 4.1 5.2 78 1.6 S 19 26 10 14 1014.7 1014.7 0.0
25/09:30pm 8.7 7.1 4.7 76 1.8 - 2 9 1 5 1014.7 1014.8 0.0
25/09:00pm 9.1 4.2 4.9 75 1.9 SSW 20 26 11 14 1014.5 1014.5 0.0
25/08:30pm 9.7 4.5 5.3 74 2.0 S 22 30 12 16 1014.3 1014.4 0.0
25/08:00pm 9.5 5.1 4.5 71 2.2 S 17 24 9 13 1014.2 1014.2 0.0
25/07:30pm 10.0 4.7 5.0 71 2.3 S 22 30 12 16 1014.0 1014.1 0.0
25/07:00pm 10.2 5.2 4.4 67 2.6 SSW 20 28 11 15 1013.7 1013.7 0.0
25/06:30pm 10.5 5.4 4.2 65 2.8 SSW 20 30 11 16 1013.6 1013.6 0.0
25/06:00pm 10.5 5.1 4.6 67 2.7 SSW 22 30 12 16 1013.3 1013.3 0.0
25/05:30pm 10.4 5.1 4.8 68 2.5 S 22 30 12 16 1012.9 1012.9 0.0
25/05:00pm 10.6 5.3 5.2 69 2.5 SSW 22 30 12 16 1012.8 1012.8 0.0
25/04:30pm 10.9 5.7 5.4 69 2.5 S 22 28 12 15 1012.7 1012.7 0.0
25/04:00pm 11.3 6.2 6.0 70 2.5 S 22 32 12 17 1012.5 1012.5 0.0
25/03:30pm 11.2 6.2 6.3 72 2.3 S 22 30 12 16 1012.2 1012.2 0.0
25/03:00pm 11.4 5.3 6.5 72 2.3 S 28 35 15 19 1012.0 1012.0 0.0
25/02:30pm 12.5 7.7 7.4 71 2.5 SSE 22 32 12 17 1011.8 1011.8 0.0
25/02:00pm 13.0 7.9 7.7 70 2.6 S 24 35 13 19 1011.5 1011.5 0.0
25/01:30pm 12.4 8.0 7.5 72 2.4 SSE 20 26 11 14 1011.5 1011.5 0.0
25/01:00pm 13.5 9.4 8.6 72 2.5 SSE 20 28 11 15 1011.4 1011.4 0.0
25/12:30pm 13.5 9.0 8.4 71 2.5 S 22 30 12 16 1011.4 1011.4 0.0
25/12:00pm 13.3 8.7 8.2 71 2.5 S 22 28 12 15 1011.4 1011.4 0.0
25/11:30am 14.2 10.4 9.0 71 2.6 SSE 19 26 10 14 1011.4 1011.4 0.0
25/11:00am 12.3 8.0 7.2 71 2.5 SE 19 26 10 14 1011.4 1011.4 0.0
25/10:30am 12.2 7.2 7.9 75 2.1 SSE 24 32 13 17 1011.4 1011.4 0.0
25/10:00am 11.3 6.6 7.6 78 1.8 SSE 22 28 12 15 1011.4 1011.4 0.0
25/09:30am 11.4 6.5 8.3 81 1.5 SSE 24 30 13 16 1011.2 1011.2 0.0
25/09:00am 10.5 5.4 7.7 83 1.4 SSE 24 32 13 17 1011.1 1011.1 2.2
25/08:30am 9.9 4.8 7.5 85 1.1 SSE 24 33 13 18 1010.9 1010.9 2.2
25/08:00am 9.7 4.3 7.8 88 0.9 SSE 26 33 14 18 1010.6 1010.6 2.2
25/07:30am 9.5 2.9 7.9 90 0.8 SSE 32 37 17 20 1010.2 1010.2 2.2
25/07:00am 9.7 3.3 8.5 92 0.6 SSE 32 39 17 21 1009.6 1009.6 2.2
25/06:30am 9.7 3.7 8.6 93 0.5 S 30 39 16 21 1009.2 1009.2 2.2
25/06:00am 10.1 3.9 9.2 94 0.4 S 32 44 17 24 1008.6 1008.6 2.2
25/05:30am 10.2 3.8 9.3 94 0.4 S 33 43 18 23 1008.2 1008.2 2.2
25/05:00am 10.1 3.2 9.0 93 0.5 S 35 43 19 23 1007.8 1007.8 2.2
25/04:30am 10.7 6.0 9.3 91 0.7 S 24 41 13 22 1007.5 1007.5 1.4
25/04:00am 11.4 6.3 9.3 87 1.1 S 26 33 14 18 1007.2 1007.2 0.0
25/03:30am 12.2 8.3 9.6 84 1.3 SSW 20 28 11 15 1006.9 1006.9 0.0
25/03:00am 11.9 8.9 9.3 84 1.3 S 15 19 8 10 1006.6 1006.6 0.0
25/02:30am 11.9 8.2 9.5 85 1.2 S 19 24 10 13 1006.6 1006.6 0.0
25/02:00am 11.9 8.3 9.8 87 1.1 SSW 19 24 10 13 1006.5 1006.5 0.0
25/01:30am 11.8 8.1 10.0 89 0.9 S 20 24 11 13 1006.4 1006.4 0.0
25/01:00am 11.7 8.2 10.1 90 0.8 S 19 24 10 13 1006.3 1006.3 0.0
25/12:30am 11.3 8.1 9.9 91 0.7 SSE 17 22 9 12 1006.3 1006.3 0.0
25/12:00am 11.0 8.5 9.8 92 0.6 S 13 19 7 10 1006.2 1006.2 0.0
 
Date/Time
EST
Temp
°C
App
Temp
°C
Dew
Point
Rel
Hum
%
Delta-T
°C
Wind Press
QNH
hPa
Press
MSL
hPa
Rain
since 9 am
mm
Dir
 
Spd
km/h
Gust
km/h
Spd
kts
Gust
kts
24/11:30pm 11.2 8.0 9.9 92 0.7 SSE 17 24 9 13 1006.2 1006.2 0.0
24/11:00pm 10.8 6.9 9.4 91 0.7 S 20 28 11 15 1006.1 1006.1 0.0
24/10:30pm 11.3 7.7 9.7 90 0.8 S 19 24 10 13 1006.0 1006.0 0.0
24/10:00pm 11.2 8.6 9.3 88 1.0 S 13 17 7 9 1005.9 1005.9 0.0
24/09:30pm 11.8 8.8 9.4 85 1.2 S 15 20 8 11 1005.8 1005.8 0.0
24/09:00pm 12.3 9.6 9.1 81 1.6 SSW 13 20 7 11 1005.5 1005.5 0.0

Other Formats:

Comma delimited format used in spreadsheet applications
http://www.bom.gov.au/fwo/IDT60801/IDT60801.95961.axf

JavaScript Object Notation format (JSON) in row-major order
http://www.bom.gov.au/fwo/IDT60801/IDT60801.95961.json